Time;durP1;ratioP1;P1;durP2;ratioP2;P2;SDS_P1;SDS_P2;PMS_P1;PMS_P2;Temp;Humidity;BMP_temperature;BMP_pressure;BME280_temperature;BME280_humidity;BME280_pressure;Samples;Min_cycle;Max_cycle;Signal;HPM_P1;HPM_P2
2023/03/19 00:01:04;;;;;;;1.20;0.93;;;10.90;99.90;;;;;;4419225;32;20089;-71
2023/03/19 00:03:30;;;;;;;1.48;1.12;;;11.00;99.90;;;;;;4418524;32;20102;-73
2023/03/19 00:05:56;;;;;;;8.70;1.48;;;10.80;99.90;;;;;;4418952;32;20101;-72
2023/03/19 00:08:22;;;;;;;3.05;1.27;;;10.60;99.90;;;;;;4419588;32;20085;-70
2023/03/19 00:10:48;;;;;;;12.90;1.12;;;10.50;99.90;;;;;;4418534;32;20073;-72
2023/03/19 00:13:14;;;;;;;2.60;1.45;;;10.60;99.90;;;;;;4420512;32;20081;-70
2023/03/19 00:15:40;;;;;;;0.80;0.80;;;10.50;99.90;;;;;;4419556;32;20089;-69
2023/03/19 00:18:06;;;;;;;1.08;0.75;;;10.40;99.90;;;;;;4419516;32;20070;-72
2023/03/19 00:20:32;;;;;;;1.77;1.17;;;10.30;99.90;;;;;;4417199;32;20085;-72
2023/03/19 00:22:57;;;;;;;1.12;1.02;;;10.20;99.90;;;;;;4417306;32;20501;-71
2023/03/19 00:25:23;;;;;;;1.75;1.05;;;10.30;99.90;;;;;;4419407;32;20105;-72
2023/03/19 00:27:48;;;;;;;0.85;0.85;;;10.30;99.90;;;;;;4418691;32;20122;-72
2023/03/19 00:30:14;;;;;;;1.70;1.25;;;10.20;99.90;;;;;;4417820;32;21141;-73
2023/03/19 00:32:40;;;;;;;1.87;1.10;;;10.20;99.90;;;;;;4418981;32;20179;-72
2023/03/19 00:35:07;;;;;;;1.48;1.37;;;10.20;99.90;;;;;;4417281;32;20609;-71
2023/03/19 00:37:33;;;;;;;1.08;1.05;;;10.20;99.90;;;;;;4416431;32;20108;-71
2023/03/19 00:39:59;;;;;;;1.12;0.98;;;10.20;99.90;;;;;;4419195;32;20096;-71
2023/03/19 00:42:24;;;;;;;3.33;1.00;;;10.10;99.90;;;;;;4417412;32;20136;-71
2023/03/19 00:44:50;;;;;;;3.65;1.20;;;10.00;99.90;;;;;;4418735;32;20468;-72
2023/03/19 00:47:16;;;;;;;0.57;0.57;;;9.90;99.90;;;;;;4419724;32;20434;-70
2023/03/19 00:49:41;;;;;;;0.95;0.90;;;9.80;99.90;;;;;;4417137;32;20123;-70
2023/03/19 00:52:07;;;;;;;2.28;1.60;;;9.70;99.90;;;;;;4417380;32;20082;-70
2023/03/19 00:54:33;;;;;;;0.82;0.82;;;9.70;99.90;;;;;;4419626;32;20073;-69
2023/03/19 00:56:59;;;;;;;1.33;0.90;;;9.80;99.90;;;;;;4415571;32;20086;-70
2023/03/19 00:59:25;;;;;;;7.28;1.27;;;9.90;99.90;;;;;;4418656;32;20597;-72
2023/03/19 01:01:51;;;;;;;2.67;1.17;;;9.80;99.90;;;;;;4419932;32;20081;-69
2023/03/19 01:04:17;;;;;;;4.87;1.48;;;9.70;99.90;;;;;;4417945;32;20153;-73
2023/03/19 01:06:43;;;;;;;1.92;1.40;;;9.60;99.90;;;;;;4418725;32;20086;-72
2023/03/19 01:09:09;;;;;;;4.10;1.67;;;9.70;99.90;;;;;;4417824;32;20154;-69
2023/03/19 01:11:35;;;;;;;1.98;1.23;;;9.60;99.90;;;;;;4416537;32;20139;-70
2023/03/19 01:14:01;;;;;;;0.88;0.88;;;9.60;99.90;;;;;;4417443;32;20468;-71
2023/03/19 01:16:27;;;;;;;3.72;2.17;;;9.50;99.90;;;;;;4418395;32;20160;-70
2023/03/19 01:18:53;;;;;;;3.37;1.40;;;9.50;99.90;;;;;;4417305;32;20061;-71
2023/03/19 01:21:19;;;;;;;7.75;0.98;;;9.40;99.90;;;;;;4420626;32;20730;-71
2023/03/19 01:23:44;;;;;;;10.45;1.50;;;9.40;99.90;;;;;;4418377;32;20090;-71
2023/03/19 01:26:11;;;;;;;2.15;1.45;;;9.40;99.90;;;;;;4419095;32;20093;-71
2023/03/19 01:28:37;;;;;;;7.05;2.35;;;9.50;99.90;;;;;;4417141;32;20405;-72
2023/03/19 01:31:06;;;;;;;4.25;1.10;;;9.50;99.90;;;;;;4416589;32;20066;-72
2023/03/19 01:33:32;;;;;;;9.38;3.03;;;9.50;99.90;;;;;;4417396;32;20504;-72
2023/03/19 01:36:01;;;;;;;5.75;1.27;;;9.50;99.90;;;;;;4419525;32;20057;-71
2023/03/19 01:38:27;;;;;;;2.72;1.67;;;9.60;99.90;;;;;;4416559;32;20084;-72
2023/03/19 01:40:52;;;;;;;5.05;1.27;;;9.50;99.90;;;;;;4417712;32;20113;-71
2023/03/19 01:43:21;;;;;;;3.35;2.17;;;9.50;99.90;;;;;;4418330;32;20089;-72
2023/03/19 01:45:50;;;;;;;1.12;1.02;;;9.40;99.90;;;;;;4416593;32;20417;-72
2023/03/19 01:48:23;;;;;;;1.30;0.90;;;9.40;99.90;;;;;;4416117;32;20137;-72
2023/03/19 01:50:52;;;;;;;2.30;1.05;;;9.30;99.90;;;;;;4417674;32;20062;-70
2023/03/19 01:53:20;;;;;;;1.62;1.00;;;9.30;99.90;;;;;;4418095;32;20082;-74
2023/03/19 01:55:46;;;;;;;0.80;0.80;;;9.30;99.90;;;;;;4417501;32;20534;-72
2023/03/19 01:58:13;;;;;;;4.75;2.08;;;9.40;99.90;;;;;;4414605;32;20140;-71
2023/03/19 02:00:39;;;;;;;2.05;1.10;;;9.50;99.90;;;;;;4418221;32;20466;-70
2023/03/19 02:03:06;;;;;;;1.00;0.98;;;9.50;99.90;;;;;;4415875;32;21128;-70
2023/03/19 02:05:32;;;;;;;1.00;0.90;;;9.40;99.90;;;;;;4417741;32;20088;-74
2023/03/19 02:08:03;;;;;;;1.80;1.10;;;9.40;99.90;;;;;;4420912;32;20077;-70
2023/03/19 02:10:30;;;;;;;1.02;0.95;;;9.40;99.90;;;;;;4419758;32;20065;-74
2023/03/19 02:12:55;;;;;;;1.20;1.15;;;9.40;99.90;;;;;;4419375;32;20117;-71
2023/03/19 02:15:21;;;;;;;16.23;1.27;;;9.40;99.90;;;;;;4422148;32;20541;-73
2023/03/19 02:17:47;;;;;;;0.60;0.60;;;9.30;99.90;;;;;;4419988;32;20137;-71
2023/03/19 02:20:21;;;;;;;2.83;1.27;;;9.40;99.90;;;;;;4419391;32;20163;-71
2023/03/19 02:23:08;;;;;;;0.82;0.82;;;9.40;99.90;;;;;;4418348;32;20502;-71
2023/03/19 02:25:50;;;;;;;1.15;1.05;;;9.30;99.90;;;;;;4403456;32;20093;-71
2023/03/19 02:28:18;;;;;;;1.60;1.17;;;9.30;99.90;;;;;;4417819;32;20081;-75
2023/03/19 02:30:44;;;;;;;1.58;1.20;;;9.30;99.90;;;;;;4418836;32;20062;-71
2023/03/19 02:33:13;;;;;;;0.85;0.85;;;9.30;99.90;;;;;;4420517;32;20463;-69
2023/03/19 02:35:39;;;;;;;1.77;1.25;;;9.30;99.90;;;;;;4419169;32;20082;-72
2023/03/19 02:38:06;;;;;;;0.70;0.70;;;9.30;99.90;;;;;;4419231;32;20089;-70
2023/03/19 02:40:37;;;;;;;5.47;1.40;;;9.20;99.90;;;;;;4420025;32;20093;-72
2023/03/19 02:43:02;;;;;;;0.62;0.62;;;9.30;99.90;;;;;;4417644;32;20077;-70
2023/03/19 02:45:30;;;;;;;1.50;0.80;;;9.30;99.90;;;;;;4420032;32;20089;-71
2023/03/19 02:47:55;;;;;;;1.27;0.90;;;9.30;99.90;;;;;;4418531;32;20088;-71
2023/03/19 02:50:21;;;;;;;3.17;1.25;;;9.40;99.90;;;;;;4418973;32;20451;-70
2023/03/19 02:52:46;;;;;;;1.02;0.93;;;9.40;99.90;;;;;;4417181;32;20116;-75
2023/03/19 02:55:12;;;;;;;1.60;1.23;;;9.30;99.90;;;;;;4418375;32;20101;-73
2023/03/19 02:57:37;;;;;;;2.95;1.27;;;9.40;99.90;;;;;;4418550;32;20085;-70
2023/03/19 03:00:05;;;;;;;1.95;1.25;;;9.20;99.90;;;;;;4419858;32;20697;-71
2023/03/19 03:02:30;;;;;;;1.37;1.10;;;9.20;99.90;;;;;;4418378;32;20077;-71
2023/03/19 03:04:56;;;;;;;1.05;0.82;;;9.20;99.90;;;;;;4419248;32;20414;-69
2023/03/19 03:07:21;;;;;;;0.70;0.70;;;9.20;99.90;;;;;;4420486;32;20098;-72
2023/03/19 03:09:47;;;;;;;1.27;1.17;;;9.30;99.90;;;;;;4419665;32;20106;-72
2023/03/19 03:12:12;;;;;;;1.55;1.10;;;9.20;99.90;;;;;;4418983;32;20080;-71
2023/03/19 03:14:39;;;;;;;1.27;1.15;;;9.20;99.90;;;;;;4419442;32;20373;-70
2023/03/19 03:17:05;;;;;;;1.25;0.82;;;9.10;99.90;;;;;;4417162;32;20109;-71
2023/03/19 03:19:30;;;;;;;1.35;1.25;;;9.00;99.90;;;;;;4417197;32;20093;-72
2023/03/19 03:21:55;;;;;;;1.37;1.00;;;9.00;99.90;;;;;;4415972;32;20141;-71
2023/03/19 03:24:21;;;;;;;12.13;1.05;;;9.10;99.90;;;;;;4417628;32;20129;-71
2023/03/19 03:26:46;;;;;;;1.58;1.15;;;9.10;99.90;;;;;;4416842;32;20414;-70
2023/03/19 03:29:12;;;;;;;2.78;0.98;;;9.10;99.90;;;;;;4417438;32;20061;-72
2023/03/19 03:31:37;;;;;;;1.10;0.80;;;9.10;99.90;;;;;;4418482;32;20442;-72
2023/03/19 03:34:03;;;;;;;1.48;1.00;;;9.10;99.90;;;;;;4416961;32;20098;-72
2023/03/19 03:36:28;;;;;;;1.08;1.02;;;9.10;99.90;;;;;;4420325;32;20089;-72
2023/03/19 03:38:54;;;;;;;1.12;0.98;;;9.30;99.90;;;;;;4417834;32;20069;-75
2023/03/19 03:41:20;;;;;;;1.85;0.90;;;9.40;99.90;;;;;;4404454;32;21347;-72
2023/03/19 03:43:46;;;;;;;0.73;0.70;;;9.20;99.90;;;;;;4416148;32;20098;-70
2023/03/19 03:48:23;;;;;;;1.23;0.80;;;9.00;99.90;;;;;;4416521;32;20533;-73
2023/03/19 03:49:36;;;;;;;0.95;0.88;;;9.00;99.90;;;;;;4396991;32;20525;-73
2023/03/19 03:52:02;;;;;;;0.88;0.73;;;8.90;99.90;;;;;;4418124;32;20065;-72
2023/03/19 03:54:28;;;;;;;7.05;1.20;;;9.00;99.90;;;;;;4420538;32;20082;-71
2023/03/19 03:56:53;;;;;;;1.25;1.00;;;9.00;99.90;;;;;;4418373;32;20406;-71
2023/03/19 03:59:19;;;;;;;1.60;1.35;;;8.90;99.90;;;;;;4416342;32;20084;-72
2023/03/19 04:01:44;;;;;;;6.78;2.28;;;8.90;99.90;;;;;;4420223;32;20077;-71
2023/03/19 04:04:10;;;;;;;1.80;1.10;;;9.00;99.90;;;;;;4418343;32;20101;-70
2023/03/19 04:06:35;;;;;;;12.23;2.00;;;9.10;99.90;;;;;;4417995;32;20128;-72
2023/03/19 04:09:01;;;;;;;1.48;1.12;;;9.10;99.90;;;;;;4420788;32;20782;-70
2023/03/19 04:11:26;;;;;;;2.53;1.83;;;9.00;99.90;;;;;;4419002;32;20195;-70
2023/03/19 04:13:56;;;;;;;2.45;1.08;;;9.00;99.90;;;;;;4421298;32;20520;-71
2023/03/19 04:16:22;;;;;;;1.40;1.25;;;8.90;99.90;;;;;;4419319;32;20109;-70
2023/03/19 04:18:48;;;;;;;0.57;0.57;;;8.90;99.90;;;;;;4418400;32;20089;-71
2023/03/19 04:21:13;;;;;;;1.35;1.25;;;8.90;99.90;;;;;;4419295;32;20090;-71
2023/03/19 04:23:39;;;;;;;1.65;1.30;;;9.00;99.90;;;;;;4419635;32;20118;-70
2023/03/19 04:26:06;;;;;;;10.77;2.37;;;9.00;99.90;;;;;;4419476;32;20081;-74
2023/03/19 04:28:32;;;;;;;1.15;1.10;;;9.00;99.90;;;;;;4420333;32;20074;-70
2023/03/19 04:31:00;;;;;;;2.67;1.77;;;9.10;99.90;;;;;;4418573;32;20110;-72
2023/03/19 04:33:25;;;;;;;2.40;1.58;;;9.20;99.90;;;;;;4418602;32;20134;-70
2023/03/19 04:35:51;;;;;;;3.30;1.75;;;9.30;99.90;;;;;;4418248;32;20147;-72
2023/03/19 04:38:17;;;;;;;2.67;1.67;;;9.30;99.90;;;;;;4420999;32;20082;-69
2023/03/19 04:40:42;;;;;;;1.27;1.15;;;9.10;99.90;;;;;;4417460;32;20155;-72
2023/03/19 04:43:08;;;;;;;1.35;1.23;;;8.90;99.90;;;;;;4421237;32;20081;-70
2023/03/19 04:45:33;;;;;;;0.73;0.73;;;8.70;99.90;;;;;;4420122;32;20117;-69
2023/03/19 04:47:59;;;;;;;2.40;1.20;;;8.60;99.90;;;;;;4417992;32;20101;-73
2023/03/19 04:50:24;;;;;;;0.80;0.80;;;8.60;99.90;;;;;;4418462;32;20073;-71
2023/03/19 04:52:49;;;;;;;0.98;0.95;;;8.60;99.90;;;;;;4419415;32;20136;-72
2023/03/19 04:55:15;;;;;;;2.17;1.77;;;8.50;99.90;;;;;;4420639;32;20486;-73
2023/03/19 04:57:40;;;;;;;1.55;1.23;;;8.50;99.90;;;;;;4418614;32;20074;-72
2023/03/19 05:00:07;;;;;;;1.52;1.00;;;8.50;99.90;;;;;;4420740;32;20116;-71
2023/03/19 05:02:33;;;;;;;3.30;1.50;;;8.50;99.90;;;;;;4419845;32;20069;-71
2023/03/19 05:04:58;;;;;;;0.70;0.62;;;8.40;99.90;;;;;;4420845;32;20105;-72
2023/03/19 05:07:24;;;;;;;4.55;1.58;;;8.30;99.90;;;;;;4419647;32;20086;-72
2023/03/19 05:09:49;;;;;;;0.82;0.82;;;8.20;99.90;;;;;;4419477;32;20081;-71
2023/03/19 05:12:15;;;;;;;6.20;1.35;;;8.10;99.90;;;;;;4418672;32;20458;-72
2023/03/19 05:14:40;;;;;;;3.83;1.05;;;8.10;99.90;;;;;;4421087;32;20065;-73
2023/03/19 05:17:06;;;;;;;0.90;0.90;;;8.30;99.90;;;;;;4418124;32;20453;-72
2023/03/19 05:19:32;;;;;;;7.37;1.30;;;8.40;99.90;;;;;;4420162;32;20085;-72
2023/03/19 05:21:58;;;;;;;1.87;1.40;;;8.50;99.90;;;;;;4419921;32;20087;-73
2023/03/19 05:24:24;;;;;;;1.65;1.08;;;8.50;99.90;;;;;;4418995;32;20061;-71
2023/03/19 05:26:49;;;;;;;1.17;1.10;;;8.50;99.90;;;;;;4419647;32;20101;-72
2023/03/19 05:29:15;;;;;;;3.90;1.52;;;8.60;99.90;;;;;;4419287;32;20093;-72
2023/03/19 05:31:40;;;;;;;15.75;1.55;;;8.80;99.90;;;;;;4418998;32;20116;-73
2023/03/19 05:34:06;;;;;;;2.20;1.25;;;8.80;99.90;;;;;;4417624;32;20076;-72
2023/03/19 05:36:32;;;;;;;9.43;1.00;;;8.50;99.90;;;;;;4419294;32;20085;-73
2023/03/19 05:38:57;;;;;;;3.37;1.35;;;8.40;99.90;;;;;;4419123;32;20074;-71
2023/03/19 05:41:23;;;;;;;1.87;1.40;;;8.30;99.90;;;;;;4417858;32;20066;-72
2023/03/19 05:43:48;;;;;;;0.70;0.70;;;8.30;99.90;;;;;;4422320;32;20121;-71
2023/03/19 05:46:14;;;;;;;2.28;1.45;;;8.40;99.90;;;;;;4421882;32;20144;-72
2023/03/19 05:48:39;;;;;;;1.23;0.95;;;8.30;99.90;;;;;;4423118;32;20325;-71
2023/03/19 05:51:05;;;;;;;1.30;1.20;;;8.40;99.90;;;;;;4422450;32;20529;-71
2023/03/19 05:53:30;;;;;;;1.08;0.98;;;8.10;99.90;;;;;;4422458;32;20057;-71
2023/03/19 05:55:56;;;;;;;1.45;1.30;;;8.20;99.90;;;;;;4420632;32;20105;-72
2023/03/19 05:58:21;;;;;;;0.65;0.65;;;8.20;99.90;;;;;;4421408;32;20160;-70
2023/03/19 06:00:47;;;;;;;1.15;1.05;;;8.20;99.90;;;;;;4420005;32;20082;-73
2023/03/19 06:03:13;;;;;;;6.12;1.48;;;8.20;99.90;;;;;;4421102;32;20212;-72
2023/03/19 06:05:39;;;;;;;2.53;1.52;;;8.20;99.90;;;;;;4421120;32;20102;-72
2023/03/19 06:08:05;;;;;;;1.90;1.55;;;8.20;99.90;;;;;;4421578;32;20081;-72
2023/03/19 06:10:30;;;;;;;3.70;2.08;;;8.30;99.90;;;;;;4420471;32;20109;-72
2023/03/19 06:12:56;;;;;;;1.00;1.00;;;8.30;99.90;;;;;;4420439;32;20097;-71
2023/03/19 06:15:21;;;;;;;1.20;0.93;;;8.40;99.90;;;;;;4422589;32;20490;-71
2023/03/19 06:17:47;;;;;;;4.03;1.23;;;8.50;99.90;;;;;;4420795;32;20089;-72
2023/03/19 06:20:13;;;;;;;1.45;1.15;;;8.50;99.90;;;;;;4420182;32;20086;-71
2023/03/19 06:22:38;;;;;;;0.70;0.70;;;8.50;99.90;;;;;;4420158;32;20101;-72
2023/03/19 06:25:05;;;;;;;0.57;0.57;;;8.50;99.90;;;;;;4420004;32;20465;-71
2023/03/19 06:27:30;;;;;;;2.95;1.87;;;8.60;99.90;;;;;;4419043;32;20089;-73
2023/03/19 06:29:56;;;;;;;1.27;1.17;;;8.70;99.90;;;;;;4420232;32;20141;-71
2023/03/19 06:32:21;;;;;;;5.30;1.20;;;8.60;99.90;;;;;;4420300;32;20528;-70
2023/03/19 06:34:47;;;;;;;6.55;1.35;;;8.60;99.90;;;;;;4419401;32;20065;-71
2023/03/19 06:37:12;;;;;;;2.05;1.00;;;8.70;99.90;;;;;;4418089;32;20078;-70
2023/03/19 06:39:38;;;;;;;2.37;1.87;;;8.80;99.90;;;;;;4420696;32;20062;-72
2023/03/19 06:42:03;;;;;;;1.33;1.23;;;8.90;99.90;;;;;;4419753;32;20106;-71
2023/03/19 06:44:29;;;;;;;1.20;1.10;;;8.90;99.90;;;;;;4420776;32;20074;-70
2023/03/19 06:46:55;;;;;;;2.90;1.80;;;9.00;99.90;;;;;;4420738;32;20078;-72
2023/03/19 06:49:20;;;;;;;1.52;1.42;;;8.90;99.90;;;;;;4421905;32;20097;-73
2023/03/19 06:51:46;;;;;;;1.40;0.73;;;8.80;99.90;;;;;;4417418;32;20101;-74
2023/03/19 06:54:11;;;;;;;0.95;0.77;;;8.80;99.90;;;;;;4418138;32;20065;-72
2023/03/19 06:56:37;;;;;;;15.55;1.75;;;8.90;99.90;;;;;;4419533;32;20546;-71
2023/03/19 06:59:02;;;;;;;4.80;1.15;;;8.80;99.90;;;;;;4420253;32;20073;-73
2023/03/19 07:01:29;;;;;;;1.15;0.95;;;8.80;99.90;;;;;;4417505;32;20085;-73
2023/03/19 07:03:56;;;;;;;1.58;1.35;;;8.80;99.90;;;;;;4420897;32;20077;-72
2023/03/19 07:06:21;;;;;;;3.03;1.10;;;8.60;99.90;;;;;;4419795;32;20105;-74
2023/03/19 07:08:47;;;;;;;34.55;1.92;;;8.60;99.90;;;;;;4421105;32;20093;-71
2023/03/19 07:11:13;;;;;;;4.22;1.25;;;8.60;99.90;;;;;;4419897;32;20101;-73
2023/03/19 07:13:38;;;;;;;1.87;1.55;;;8.60;99.90;;;;;;4419180;32;20440;-72
2023/03/19 07:16:05;;;;;;;1.45;1.05;;;8.60;99.90;;;;;;4416554;32;20090;-73
2023/03/19 07:18:30;;;;;;;2.45;1.33;;;8.60;99.90;;;;;;4418574;32;20066;-70
2023/03/19 07:20:56;;;;;;;3.08;1.27;;;8.60;99.90;;;;;;4419592;32;20073;-73
2023/03/19 07:23:21;;;;;;;2.75;1.30;;;8.70;99.90;;;;;;4418949;32;20101;-72
2023/03/19 07:25:47;;;;;;;0.82;0.82;;;8.70;99.90;;;;;;4419608;32;20088;-74
2023/03/19 07:28:13;;;;;;;3.95;1.35;;;8.80;99.90;;;;;;4419624;32;20450;-74
2023/03/19 07:30:39;;;;;;;1.75;1.20;;;8.80;99.90;;;;;;4421362;32;20493;-74
2023/03/19 07:33:06;;;;;;;1.35;1.12;;;8.90;99.90;;;;;;4416390;32;20136;-71
2023/03/19 07:35:32;;;;;;;14.70;2.85;;;9.00;99.90;;;;;;4416951;32;20148;-75
2023/03/19 07:37:58;;;;;;;2.30;0.95;;;9.20;99.90;;;;;;4418244;32;20061;-72
2023/03/19 07:40:24;;;;;;;0.70;0.70;;;9.20;99.90;;;;;;4420083;32;20069;-71
2023/03/19 07:42:50;;;;;;;5.07;1.10;;;9.30;99.90;;;;;;4418531;32;20085;-72
2023/03/19 07:45:15;;;;;;;1.08;0.98;;;9.40;99.90;;;;;;4421105;32;20458;-72
2023/03/19 07:47:41;;;;;;;1.05;0.98;;;9.50;99.90;;;;;;4418938;32;20090;-71
2023/03/19 07:50:08;;;;;;;0.80;0.80;;;9.50;99.90;;;;;;4420089;32;20518;-71
2023/03/19 07:52:33;;;;;;;1.17;1.08;;;9.50;99.90;;;;;;4419279;32;20061;-71
2023/03/19 07:54:59;;;;;;;2.25;1.92;;;9.50;99.90;;;;;;4420680;32;20631;-72
2023/03/19 07:57:25;;;;;;;0.93;0.93;;;9.50;99.90;;;;;;4418740;32;20231;-71
2023/03/19 07:59:51;;;;;;;1.02;0.98;;;9.50;99.90;;;;;;4419499;32;20153;-71
2023/03/19 08:02:17;;;;;;;6.12;2.55;;;9.60;99.90;;;;;;4419627;32;21315;-72
2023/03/19 08:04:42;;;;;;;0.80;0.80;;;9.80;99.90;;;;;;4419675;32;20078;-71
2023/03/19 08:07:11;;;;;;;3.00;1.20;;;9.90;99.90;;;;;;4419566;32;20120;-74
2023/03/19 08:09:38;;;;;;;1.12;1.02;;;9.90;99.90;;;;;;4418927;32;20068;-72
2023/03/19 08:12:04;;;;;;;7.65;1.90;;;10.00;99.90;;;;;;4415170;32;20109;-71
2023/03/19 08:14:29;;;;;;;3.40;1.00;;;10.10;99.90;;;;;;4419318;32;20074;-74
2023/03/19 08:16:55;;;;;;;1.40;1.05;;;10.10;99.90;;;;;;4419459;32;20520;-71
2023/03/19 08:19:21;;;;;;;2.33;1.27;;;10.20;99.90;;;;;;4419840;32;20076;-73
2023/03/19 08:21:46;;;;;;;1.75;1.42;;;10.20;99.90;;;;;;4419966;32;20114;-72
2023/03/19 08:24:12;;;;;;;1.27;1.17;;;10.30;99.90;;;;;;4417100;32;20121;-72
2023/03/19 08:26:37;;;;;;;10.00;1.12;;;10.20;99.90;;;;;;4419110;32;20085;-71
2023/03/19 08:29:03;;;;;;;1.02;0.98;;;10.10;99.90;;;;;;4417253;32;20899;-71
2023/03/19 08:31:29;;;;;;;1.20;1.10;;;10.00;99.90;;;;;;4416536;32;20230;-71
2023/03/19 08:33:55;;;;;;;0.95;0.95;;;10.00;99.90;;;;;;4417096;32;20085;-73
2023/03/19 08:36:20;;;;;;;1.65;1.45;;;10.00;99.90;;;;;;4417171;32;20117;-70
2023/03/19 08:38:45;;;;;;;0.90;0.90;;;10.00;99.90;;;;;;4414848;32;20601;-73
2023/03/19 08:41:11;;;;;;;0.75;0.75;;;9.90;99.90;;;;;;4415135;32;20559;-72
2023/03/19 08:43:37;;;;;;;1.27;1.17;;;9.80;99.90;;;;;;4417511;32;20086;-71
2023/03/19 08:46:04;;;;;;;0.90;0.90;;;9.60;99.90;;;;;;4414780;32;20062;-72
2023/03/19 08:48:30;;;;;;;19.05;0.82;;;9.50;99.90;;;;;;4416038;32;20469;-70
2023/03/19 08:50:58;;;;;;;1.02;1.00;;;9.50;99.90;;;;;;4418241;32;20070;-72
2023/03/19 08:53:24;;;;;;;1.08;1.00;;;9.40;99.90;;;;;;4416345;32;20097;-73
2023/03/19 08:55:52;;;;;;;11.20;1.48;;;9.40;99.90;;;;;;4418226;32;20086;-72
2023/03/19 08:58:18;;;;;;;1.70;1.20;;;9.40;99.90;;;;;;4416144;32;20089;-73
2023/03/19 09:00:43;;;;;;;0.82;0.80;;;9.40;99.90;;;;;;4416867;32;20082;-72
2023/03/19 09:03:09;;;;;;;1.73;0.95;;;9.50;99.90;;;;;;4417478;32;20190;-72
2023/03/19 09:05:35;;;;;;;0.57;0.57;;;9.50;99.90;;;;;;4416493;32;20074;-71
2023/03/19 09:08:00;;;;;;;2.08;1.10;;;9.50;99.90;;;;;;4418590;32;20465;-74
2023/03/19 09:10:26;;;;;;;3.15;1.17;;;9.60;99.90;;;;;;4416326;32;20100;-71
2023/03/19 09:12:51;;;;;;;3.17;1.00;;;9.70;99.90;;;;;;4418010;32;20088;-74
2023/03/19 09:15:17;;;;;;;1.77;1.10;;;9.70;99.90;;;;;;4417714;32;20196;-71
2023/03/19 09:17:43;;;;;;;1.73;1.33;;;9.80;99.90;;;;;;4417285;32;20104;-72
2023/03/19 09:20:09;;;;;;;0.80;0.65;;;9.90;99.90;;;;;;4418879;32;20121;-73
2023/03/19 09:22:35;;;;;;;2.05;1.52;;;9.90;99.90;;;;;;4420244;32;20176;-73
2023/03/19 09:25:01;;;;;;;2.35;1.20;;;10.00;99.90;;;;;;4416881;32;20089;-71
2023/03/19 09:27:27;;;;;;;2.17;1.15;;;10.10;99.90;;;;;;4415156;32;20157;-71
2023/03/19 09:29:53;;;;;;;0.95;0.85;;;10.20;99.90;;;;;;4418738;32;20074;-71
2023/03/19 09:32:18;;;;;;;1.75;1.05;;;10.20;99.90;;;;;;4414385;32;20101;-71
2023/03/19 09:34:43;;;;;;;0.90;0.88;;;10.30;99.90;;;;;;4419031;32;20077;-71
2023/03/19 09:37:10;;;;;;;3.70;1.58;;;10.30;99.90;;;;;;4418237;32;20701;-73
2023/03/19 09:39:36;;;;;;;2.25;1.58;;;10.40;99.90;;;;;;4422106;32;20117;-78
2023/03/19 09:42:10;;;;;;;1.17;1.08;;;10.50;99.90;;;;;;4417256;32;20089;-76
2023/03/19 09:44:38;;;;;;;3.37;1.42;;;10.60;99.90;;;;;;4403057;32;20223;-77
2023/03/19 09:47:30;;;;;;;1.55;1.45;;;10.70;99.90;;;;;;4418688;32;20207;-75
2023/03/19 09:50:00;;;;;;;1.67;0.88;;;10.80;99.90;;;;;;4407306;32;20101;-78
2023/03/19 09:52:47;;;;;;;2.97;0.90;;;10.80;99.90;;;;;;4418520;32;20441;-78
2023/03/19 09:55:25;;;;;;;2.03;0.95;;;10.90;99.90;;;;;;4406741;32;20090;-78
2023/03/19 09:57:54;;;;;;;6.68;0.85;;;11.10;99.90;;;;;;4404186;32;20085;-78
2023/03/19 10:00:24;;;;;;;1.10;1.00;;;11.10;99.90;;;;;;4418272;32;20509;-77
2023/03/19 10:03:00;;;;;;;0.80;0.80;;;11.30;99.90;;;;;;4417844;32;20098;-79
2023/03/19 10:05:40;;;;;;;6.18;1.05;;;11.40;99.90;;;;;;4421461;32;20085;-77
2023/03/19 10:08:37;;;;;;;0.93;0.93;;;11.50;99.90;;;;;;4424454;32;20081;-77
2023/03/19 10:11:26;;;;;;;0.98;0.88;;;11.50;99.90;;;;;;4412171;32;20203;-77
2023/03/19 10:14:32;;;;;;;0.77;0.77;;;11.60;99.90;;;;;;4425228;32;20129;-77
2023/03/19 10:17:00;;;;;;;2.25;1.00;;;11.50;99.90;;;;;;4405144;32;20433;-77
2023/03/19 10:19:45;;;;;;;0.88;0.88;;;11.50;99.90;;;;;;4427660;32;20105;-76
2023/03/19 10:22:17;;;;;;;2.83;1.15;;;11.40;99.90;;;;;;4411044;32;20098;-75
2023/03/19 10:24:45;;;;;;;2.03;1.42;;;11.50;99.90;;;;;;4424814;32;20096;-74
2023/03/19 10:27:16;;;;;;;0.93;0.93;;;11.50;99.90;;;;;;4419742;32;20110;-70
2023/03/19 10:29:42;;;;;;;2.40;1.02;;;11.70;99.90;;;;;;4419525;32;20113;-74
2023/03/19 10:32:18;;;;;;;3.87;1.15;;;11.80;99.90;;;;;;4419663;32;20074;-71
2023/03/19 10:34:48;;;;;;;1.77;0.85;;;11.90;99.90;;;;;;4418801;32;20109;-69
2023/03/19 10:37:19;;;;;;;7.60;1.35;;;11.90;99.90;;;;;;4418892;32;20561;-71
2023/03/19 10:39:47;;;;;;;1.65;1.15;;;12.00;99.90;;;;;;4418817;32;20093;-72
2023/03/19 10:42:33;;;;;;;1.65;1.27;;;12.00;99.90;;;;;;4418685;32;20549;-72
2023/03/19 10:45:11;;;;;;;2.03;1.08;;;12.30;99.90;;;;;;4418479;32;20098;-71
2023/03/19 10:47:38;;;;;;;12.23;1.70;;;12.40;99.90;;;;;;4419311;32;20076;-74
2023/03/19 10:50:05;;;;;;;8.98;0.82;;;12.70;99.90;;;;;;4422684;32;20096;-78
2023/03/19 10:52:34;;;;;;;0.95;0.70;;;12.90;99.90;;;;;;4423752;32;20458;-79
2023/03/19 10:55:11;;;;;;;4.60;1.00;;;13.30;99.90;;;;;;4424694;32;20081;-78
2023/03/19 10:57:41;;;;;;;1.27;0.95;;;13.70;99.90;;;;;;4426598;32;20123;-76
2023/03/19 11:00:17;;;;;;;0.98;0.90;;;13.60;99.90;;;;;;4427744;32;20089;-76
2023/03/19 11:02:48;;;;;;;43.63;1.85;;;13.70;99.90;;;;;;4425034;32;20133;-74
2023/03/19 11:05:24;;;;;;;0.80;0.80;;;13.70;99.90;;;;;;4426282;32;20106;-77
2023/03/19 11:07:54;;;;;;;0.50;0.50;;;13.80;99.90;;;;;;4412285;32;20568;-77
2023/03/19 11:10:21;;;;;;;1.50;0.70;;;14.00;99.90;;;;;;4424771;32;20069;-78
2023/03/19 11:12:53;;;;;;;17.20;1.05;;;14.10;99.90;;;;;;4425589;32;20215;-77
2023/03/19 11:15:22;;;;;;;1.85;0.75;;;14.00;99.90;;;;;;4427576;32;20101;-75
2023/03/19 11:17:56;;;;;;;1.00;1.00;;;13.70;99.90;;;;;;4425592;32;20073;-77
2023/03/19 11:20:29;;;;;;;0.70;0.70;;;13.50;99.90;;;;;;4426763;32;20087;-78
2023/03/19 11:22:57;;;;;;;2.15;0.95;;;13.30;99.90;;;;;;4419795;32;20093;-75
2023/03/19 11:25:30;;;;;;;0.70;0.70;;;13.40;99.90;;;;;;4423484;32;20069;-75
2023/03/19 11:28:02;;;;;;;2.62;0.80;;;13.50;99.90;;;;;;4421912;32;20069;-80
2023/03/19 11:30:40;;;;;;;1.10;0.98;;;13.40;99.90;;;;;;4423817;32;20077;-75
2023/03/19 11:33:45;;;;;;;0.52;0.52;;;13.40;99.90;;;;;;4420782;32;20140;-77
2023/03/19 11:36:47;;;;;;;1.15;0.82;;;13.30;99.90;;;;;;4409952;32;20843;-75
2023/03/19 11:39:26;;;;;;;0.70;0.60;;;13.30;99.90;;;;;;4409985;32;20095;-78
2023/03/19 11:41:59;;;;;;;0.60;0.60;;;13.30;99.90;;;;;;4417643;32;20147;-77
2023/03/19 11:45:04;;;;;;;0.60;0.60;;;13.30;99.90;;;;;;4405393;32;88651;-73
2023/03/19 11:47:47;;;;;;;0.65;0.65;;;13.30;99.90;;;;;;4401006;32;20061;-76
2023/03/19 11:50:29;;;;;;;0.80;0.77;;;13.40;99.90;;;;;;4420302;32;20102;-76
2023/03/19 11:52:58;;;;;;;0.85;0.70;;;13.50;99.90;;;;;;4418783;32;20069;-76
2023/03/19 11:55:34;;;;;;;0.60;0.60;;;13.40;99.90;;;;;;4405928;32;20094;-74
2023/03/19 11:58:39;;;;;;;0.95;0.88;;;13.40;99.90;;;;;;4421556;32;20221;-77
2023/03/19 12:01:19;;;;;;;0.68;0.68;;;13.40;99.90;;;;;;4400403;32;20077;-78
2023/03/19 12:04:20;;;;;;;0.60;0.60;;;13.40;99.90;;;;;;4422890;32;20066;-77
2023/03/19 12:07:03;;;;;;;2.25;1.17;;;13.50;99.90;;;;;;4409268;32;20225;-77
2023/03/19 12:09:48;;;;;;;1.15;0.80;;;13.60;99.90;;;;;;4424213;32;20069;-78
2023/03/19 12:12:51;;;;;;;0.50;0.50;;;13.70;99.90;;;;;;4422002;32;20145;-76
2023/03/19 12:15:33;;;;;;;0.88;0.85;;;13.80;99.90;;;;;;4412318;32;20085;-77
2023/03/19 12:18:23;;;;;;;0.62;0.60;;;13.80;99.90;;;;;;4420099;32;20078;-78
2023/03/19 12:21:05;;;;;;;0.73;0.73;;;13.90;99.90;;;;;;4422076;32;20161;-78
2023/03/19 12:23:33;;;;;;;2.55;0.90;;;13.90;99.90;;;;;;4419041;32;20081;-79
2023/03/19 12:26:05;;;;;;;0.82;0.70;;;14.00;99.90;;;;;;4423873;32;20086;-74
2023/03/19 12:28:53;;;;;;;1.77;1.12;;;14.00;99.90;;;;;;4421013;32;20100;-75
2023/03/19 12:31:23;;;;;;;0.73;0.73;;;14.00;99.90;;;;;;4411639;32;20093;-77
2023/03/19 12:34:02;;;;;;;0.73;0.73;;;14.10;99.90;;;;;;4419781;32;20069;-76
2023/03/19 12:36:32;;;;;;;1.10;0.80;;;14.30;99.90;;;;;;4419711;32;20069;-75
2023/03/19 12:39:05;;;;;;;0.77;0.77;;;14.40;99.90;;;;;;4418961;32;20097;-76
2023/03/19 12:41:32;;;;;;;5.32;1.12;;;14.50;99.90;;;;;;4419414;32;20517;-76
2023/03/19 12:44:21;;;;;;;1.12;0.88;;;14.50;99.90;;;;;;4419671;32;20089;-77
2023/03/19 12:46:54;;;;;;;0.70;0.70;;;14.80;99.90;;;;;;4409396;32;20081;-78
2023/03/19 12:49:24;;;;;;;0.80;0.80;;;15.00;99.90;;;;;;4421490;32;20078;-78
2023/03/19 12:51:56;;;;;;;0.85;0.70;;;15.10;99.90;;;;;;4418409;32;20964;-78
2023/03/19 12:54:27;;;;;;;1.37;1.02;;;15.30;99.90;;;;;;4417924;32;20074;-79
2023/03/19 12:57:16;;;;;;;0.50;0.50;;;15.50;99.90;;;;;;4421159;32;20102;-79
2023/03/19 13:00:05;;;;;;;0.60;0.60;;;15.90;99.90;;;;;;4420084;32;20082;-76
2023/03/19 13:02:41;;;;;;;0.80;0.80;;;16.10;99.90;;;;;;4408741;32;20086;-78